sensor_id;sensor_type;location;lat;lon;timestamp;P1;durP1;ratioP1;P2;durP2;ratioP2
9657;SDS011;4867;48.112;11.622;2022-08-19T00:01:58;8.07;;;7.37;;
9657;SDS011;4867;48.112;11.622;2022-08-19T00:04:29;8.53;;;7.83;;
9657;SDS011;4867;48.112;11.622;2022-08-19T00:06:59;8.60;;;7.90;;
9657;SDS011;4867;48.112;11.622;2022-08-19T00:09:26;7.57;;;6.87;;
9657;SDS011;4867;48.112;11.622;2022-08-19T00:11:54;6.87;;;6.37;;
9657;SDS011;4867;48.112;11.622;2022-08-19T00:14:24;7.47;;;6.67;;
9657;SDS011;4867;48.112;11.622;2022-08-19T00:16:53;7.57;;;6.97;;
9657;SDS011;4867;48.112;11.622;2022-08-19T00:19:21;7.60;;;7.00;;
9657;SDS011;4867;48.112;11.622;2022-08-19T00:21:48;7.67;;;7.03;;
9657;SDS011;4867;48.112;11.622;2022-08-19T00:24:16;7.07;;;6.47;;
9657;SDS011;4867;48.112;11.622;2022-08-19T00:26:43;7.20;;;6.70;;
9657;SDS011;4867;48.112;11.622;2022-08-19T00:29:12;6.90;;;6.30;;
9657;SDS011;4867;48.112;11.622;2022-08-19T00:31:43;8.23;;;7.43;;
9657;SDS011;4867;48.112;11.622;2022-08-19T00:34:13;8.17;;;7.43;;
9657;SDS011;4867;48.112;11.622;2022-08-19T00:36:46;8.27;;;7.57;;
9657;SDS011;4867;48.112;11.622;2022-08-19T00:39:14;8.33;;;7.63;;
9657;SDS011;4867;48.112;11.622;2022-08-19T00:41:43;8.27;;;7.57;;
9657;SDS011;4867;48.112;11.622;2022-08-19T00:46:41;9.00;;;8.20;;
9657;SDS011;4867;48.112;11.622;2022-08-19T00:52:25;8.73;;;7.93;;
9657;SDS011;4867;48.112;11.622;2022-08-19T00:54:57;8.80;;;8.03;;
9657;SDS011;4867;48.112;11.622;2022-08-19T00:57:28;9.17;;;8.27;;
9657;SDS011;4867;48.112;11.622;2022-08-19T00:59:58;8.63;;;7.93;;
9657;SDS011;4867;48.112;11.622;2022-08-19T01:02:29;8.73;;;8.03;;
9657;SDS011;4867;48.112;11.622;2022-08-19T01:04:57;10.27;;;9.37;;
9657;SDS011;4867;48.112;11.622;2022-08-19T01:07:25;10.17;;;9.27;;
9657;SDS011;4867;48.112;11.622;2022-08-19T01:09:52;9.40;;;8.60;;
9657;SDS011;4867;48.112;11.622;2022-08-19T01:12:22;9.80;;;9.00;;
9657;SDS011;4867;48.112;11.622;2022-08-19T01:14:49;9.80;;;8.93;;
9657;SDS011;4867;48.112;11.622;2022-08-19T01:17:17;10.80;;;9.70;;
9657;SDS011;4867;48.112;11.622;2022-08-19T01:19:47;10.30;;;9.30;;
9657;SDS011;4867;48.112;11.622;2022-08-19T01:22:34;10.53;;;9.63;;
9657;SDS011;4867;48.112;11.622;2022-08-19T01:25:09;10.87;;;9.97;;
9657;SDS011;4867;48.112;11.622;2022-08-19T01:27:41;11.10;;;10.07;;
9657;SDS011;4867;48.112;11.622;2022-08-19T01:30:15;10.90;;;9.80;;
9657;SDS011;4867;48.112;11.622;2022-08-19T01:32:44;10.50;;;9.60;;
9657;SDS011;4867;48.112;11.622;2022-08-19T01:35:11;10.77;;;9.77;;
9657;SDS011;4867;48.112;11.622;2022-08-19T01:37:43;11.43;;;10.27;;
9657;SDS011;4867;48.112;11.622;2022-08-19T01:40:16;10.00;;;9.03;;
9657;SDS011;4867;48.112;11.622;2022-08-19T01:42:49;10.33;;;9.47;;
9657;SDS011;4867;48.112;11.622;2022-08-19T01:45:18;10.20;;;9.20;;
9657;SDS011;4867;48.112;11.622;2022-08-19T01:47:47;9.87;;;9.07;;
9657;SDS011;4867;48.112;11.622;2022-08-19T01:50:27;9.87;;;8.97;;
9657;SDS011;4867;48.112;11.622;2022-08-19T01:52:57;10.00;;;9.10;;
9657;SDS011;4867;48.112;11.622;2022-08-19T01:55:31;9.20;;;8.33;;
9657;SDS011;4867;48.112;11.622;2022-08-19T01:58:00;9.60;;;8.80;;
9657;SDS011;4867;48.112;11.622;2022-08-19T02:00:32;9.03;;;8.17;;
9657;SDS011;4867;48.112;11.622;2022-08-19T02:02:59;9.60;;;8.57;;
9657;SDS011;4867;48.112;11.622;2022-08-19T02:05:27;9.20;;;8.40;;
9657;SDS011;4867;48.112;11.622;2022-08-19T02:07:56;8.93;;;8.23;;
9657;SDS011;4867;48.112;11.622;2022-08-19T02:10:25;9.30;;;8.40;;
9657;SDS011;4867;48.112;11.622;2022-08-19T02:12:52;8.97;;;8.17;;
9657;SDS011;4867;48.112;11.622;2022-08-19T02:15:19;8.93;;;8.20;;
9657;SDS011;4867;48.112;11.622;2022-08-19T02:17:48;8.63;;;7.83;;
9657;SDS011;4867;48.112;11.622;2022-08-19T02:20:15;8.33;;;7.53;;
9657;SDS011;4867;48.112;11.622;2022-08-19T02:22:43;8.50;;;7.63;;
9657;SDS011;4867;48.112;11.622;2022-08-19T02:25:11;7.83;;;7.13;;
9657;SDS011;4867;48.112;11.622;2022-08-19T02:27:39;8.23;;;7.53;;
9657;SDS011;4867;48.112;11.622;2022-08-19T02:30:07;8.30;;;7.50;;
9657;SDS011;4867;48.112;11.622;2022-08-19T02:32:39;7.87;;;7.17;;
9657;SDS011;4867;48.112;11.622;2022-08-19T02:35:20;7.60;;;6.97;;
9657;SDS011;4867;48.112;11.622;2022-08-19T02:37:47;7.97;;;7.27;;
9657;SDS011;4867;48.112;11.622;2022-08-19T02:40:36;8.13;;;7.33;;
9657;SDS011;4867;48.112;11.622;2022-08-19T02:43:06;7.17;;;6.57;;
9657;SDS011;4867;48.112;11.622;2022-08-19T02:45:35;7.60;;;7.00;;
9657;SDS011;4867;48.112;11.622;2022-08-19T02:48:06;7.30;;;6.63;;
9657;SDS011;4867;48.112;11.622;2022-08-19T02:50:47;7.90;;;7.20;;
9657;SDS011;4867;48.112;11.622;2022-08-19T02:53:23;8.07;;;7.27;;
9657;SDS011;4867;48.112;11.622;2022-08-19T02:55:52;8.03;;;7.23;;
9657;SDS011;4867;48.112;11.622;2022-08-19T02:58:20;7.87;;;7.17;;
9657;SDS011;4867;48.112;11.622;2022-08-19T03:00:49;7.73;;;7.07;;
9657;SDS011;4867;48.112;11.622;2022-08-19T03:03:19;8.37;;;7.67;;
9657;SDS011;4867;48.112;11.622;2022-08-19T03:05:46;8.73;;;7.93;;
9657;SDS011;4867;48.112;11.622;2022-08-19T03:08:22;8.13;;;7.43;;
9657;SDS011;4867;48.112;11.622;2022-08-19T03:10:50;7.90;;;7.20;;
9657;SDS011;4867;48.112;11.622;2022-08-19T03:13:19;8.40;;;7.70;;
9657;SDS011;4867;48.112;11.622;2022-08-19T03:15:47;8.27;;;7.47;;
9657;SDS011;4867;48.112;11.622;2022-08-19T03:18:14;8.57;;;7.87;;
9657;SDS011;4867;48.112;11.622;2022-08-19T03:20:47;7.73;;;7.13;;
9657;SDS011;4867;48.112;11.622;2022-08-19T03:23:16;8.27;;;7.57;;
9657;SDS011;4867;48.112;11.622;2022-08-19T03:25:45;8.50;;;7.80;;
9657;SDS011;4867;48.112;11.622;2022-08-19T03:28:33;8.30;;;7.50;;
9657;SDS011;4867;48.112;11.622;2022-08-19T03:31:01;7.90;;;7.20;;
9657;SDS011;4867;48.112;11.622;2022-08-19T03:33:29;7.60;;;7.00;;
9657;SDS011;4867;48.112;11.622;2022-08-19T03:36:04;8.00;;;7.20;;
9657;SDS011;4867;48.112;11.622;2022-08-19T03:38:36;8.40;;;7.60;;
9657;SDS011;4867;48.112;11.622;2022-08-19T03:41:06;8.30;;;7.50;;
9657;SDS011;4867;48.112;11.622;2022-08-19T03:43:37;8.80;;;8.03;;
9657;SDS011;4867;48.112;11.622;2022-08-19T03:46:16;8.50;;;7.80;;
9657;SDS011;4867;48.112;11.622;2022-08-19T03:48:47;8.37;;;7.57;;
9657;SDS011;4867;48.112;11.622;2022-08-19T03:51:21;8.57;;;7.80;;
9657;SDS011;4867;48.112;11.622;2022-08-19T03:53:56;8.80;;;8.03;;
9657;SDS011;4867;48.112;11.622;2022-08-19T03:56:25;7.80;;;7.10;;
9657;SDS011;4867;48.112;11.622;2022-08-19T03:58:54;8.40;;;7.70;;
9657;SDS011;4867;48.112;11.622;2022-08-19T04:01:24;8.43;;;7.63;;
9657;SDS011;4867;48.112;11.622;2022-08-19T04:04:00;8.93;;;8.13;;
9657;SDS011;4867;48.112;11.622;2022-08-19T04:06:31;8.40;;;7.70;;
9657;SDS011;4867;48.112;11.622;2022-08-19T04:09:01;8.10;;;7.33;;
9657;SDS011;4867;48.112;11.622;2022-08-19T04:11:33;7.50;;;6.80;;
9657;SDS011;4867;48.112;11.622;2022-08-19T04:14:10;8.20;;;7.40;;
9657;SDS011;4867;48.112;11.622;2022-08-19T04:16:38;8.23;;;7.50;;
9657;SDS011;4867;48.112;11.622;2022-08-19T04:19:05;8.37;;;7.67;;
9657;SDS011;4867;48.112;11.622;2022-08-19T04:21:33;8.20;;;7.50;;
9657;SDS011;4867;48.112;11.622;2022-08-19T04:24:00;8.30;;;7.23;;
9657;SDS011;4867;48.112;11.622;2022-08-19T04:26:33;8.03;;;7.33;;
9657;SDS011;4867;48.112;11.622;2022-08-19T04:29:09;8.30;;;7.60;;
9657;SDS011;4867;48.112;11.622;2022-08-19T04:31:39;8.13;;;7.43;;
9657;SDS011;4867;48.112;11.622;2022-08-19T04:34:09;8.17;;;7.47;;
9657;SDS011;4867;48.112;11.622;2022-08-19T04:36:37;8.67;;;7.87;;
9657;SDS011;4867;48.112;11.622;2022-08-19T04:39:07;9.00;;;8.20;;
9657;SDS011;4867;48.112;11.622;2022-08-19T04:41:39;9.37;;;8.37;;
9657;SDS011;4867;48.112;11.622;2022-08-19T04:44:25;9.23;;;8.43;;
9657;SDS011;4867;48.112;11.622;2022-08-19T04:46:52;8.33;;;7.43;;
9657;SDS011;4867;48.112;11.622;2022-08-19T04:49:20;8.23;;;7.53;;
9657;SDS011;4867;48.112;11.622;2022-08-19T04:51:52;8.13;;;7.33;;
9657;SDS011;4867;48.112;11.622;2022-08-19T04:54:21;7.83;;;6.97;;
9657;SDS011;4867;48.112;11.622;2022-08-19T04:57:04;7.73;;;7.13;;
9657;SDS011;4867;48.112;11.622;2022-08-19T04:59:35;8.10;;;7.30;;
9657;SDS011;4867;48.112;11.622;2022-08-19T05:02:03;7.53;;;6.80;;
9657;SDS011;4867;48.112;11.622;2022-08-19T05:04:31;7.97;;;7.27;;
9657;SDS011;4867;48.112;11.622;2022-08-19T05:07:00;7.70;;;7.00;;
9657;SDS011;4867;48.112;11.622;2022-08-19T05:09:28;7.57;;;6.53;;
9657;SDS011;4867;48.112;11.622;2022-08-19T05:12:16;7.90;;;7.20;;
9657;SDS011;4867;48.112;11.622;2022-08-19T05:14:43;7.33;;;6.73;;
9657;SDS011;4867;48.112;11.622;2022-08-19T05:17:17;7.27;;;6.63;;
9657;SDS011;4867;48.112;11.622;2022-08-19T05:20:04;7.67;;;6.97;;
9657;SDS011;4867;48.112;11.622;2022-08-19T05:22:52;7.03;;;6.43;;
9657;SDS011;4867;48.112;11.622;2022-08-19T05:25:20;6.97;;;6.37;;
9657;SDS011;4867;48.112;11.622;2022-08-19T05:27:49;6.70;;;6.20;;
9657;SDS011;4867;48.112;11.622;2022-08-19T05:30:16;6.87;;;6.23;;
9657;SDS011;4867;48.112;11.622;2022-08-19T05:32:59;6.73;;;6.13;;
9657;SDS011;4867;48.112;11.622;2022-08-19T05:35:26;6.40;;;5.90;;
9657;SDS011;4867;48.112;11.622;2022-08-19T05:38:00;7.33;;;6.33;;
9657;SDS011;4867;48.112;11.622;2022-08-19T05:40:26;8.63;;;6.73;;
9657;SDS011;4867;48.112;11.622;2022-08-19T05:42:54;7.87;;;7.07;;
9657;SDS011;4867;48.112;11.622;2022-08-19T05:45:21;8.53;;;7.63;;
9657;SDS011;4867;48.112;11.622;2022-08-19T05:47:48;7.57;;;6.83;;
9657;SDS011;4867;48.112;11.622;2022-08-19T05:50:16;8.73;;;7.93;;
9657;SDS011;4867;48.112;11.622;2022-08-19T05:52:43;9.77;;;7.90;;
9657;SDS011;4867;48.112;11.622;2022-08-19T05:55:16;8.10;;;7.50;;
9657;SDS011;4867;48.112;11.622;2022-08-19T05:57:43;9.17;;;8.33;;
9657;SDS011;4867;48.112;11.622;2022-08-19T06:00:11;9.60;;;8.70;;
9657;SDS011;4867;48.112;11.622;2022-08-19T06:02:38;10.03;;;9.13;;
9657;SDS011;4867;48.112;11.622;2022-08-19T06:05:06;10.60;;;9.60;;
9657;SDS011;4867;48.112;11.622;2022-08-19T06:07:36;11.60;;;10.50;;
9657;SDS011;4867;48.112;11.622;2022-08-19T06:10:06;10.57;;;9.50;;
9657;SDS011;4867;48.112;11.622;2022-08-19T06:12:35;11.70;;;10.27;;
9657;SDS011;4867;48.112;11.622;2022-08-19T06:15:04;11.73;;;10.73;;
9657;SDS011;4867;48.112;11.622;2022-08-19T06:17:36;12.30;;;11.10;;
9657;SDS011;4867;48.112;11.622;2022-08-19T06:20:04;12.57;;;11.30;;
9657;SDS011;4867;48.112;11.622;2022-08-19T06:22:37;15.37;;;13.77;;
9657;SDS011;4867;48.112;11.622;2022-08-19T06:25:09;14.67;;;13.17;;
9657;SDS011;4867;48.112;11.622;2022-08-19T06:27:37;14.30;;;13.00;;
9657;SDS011;4867;48.112;11.622;2022-08-19T06:30:25;16.27;;;14.67;;
9657;SDS011;4867;48.112;11.622;2022-08-19T06:32:52;16.40;;;14.80;;
9657;SDS011;4867;48.112;11.622;2022-08-19T06:35:19;15.97;;;14.37;;
9657;SDS011;4867;48.112;11.622;2022-08-19T06:37:46;15.77;;;14.27;;
9657;SDS011;4867;48.112;11.622;2022-08-19T06:40:14;15.43;;;13.93;;
9657;SDS011;4867;48.112;11.622;2022-08-19T06:42:41;15.87;;;14.23;;
9657;SDS011;4867;48.112;11.622;2022-08-19T06:45:19;15.80;;;14.30;;
9657;SDS011;4867;48.112;11.622;2022-08-19T06:47:50;14.47;;;13.00;;
9657;SDS011;4867;48.112;11.622;2022-08-19T06:50:20;16.60;;;14.70;;
9657;SDS011;4867;48.112;11.622;2022-08-19T06:52:50;19.60;;;15.67;;
9657;SDS011;4867;48.112;11.622;2022-08-19T06:55:19;18.30;;;16.40;;
9657;SDS011;4867;48.112;11.622;2022-08-19T06:57:46;18.10;;;16.20;;
9657;SDS011;4867;48.112;11.622;2022-08-19T07:00:17;18.93;;;16.93;;
9657;SDS011;4867;48.112;11.622;2022-08-19T07:02:44;18.30;;;16.50;;
9657;SDS011;4867;48.112;11.622;2022-08-19T07:05:22;18.53;;;16.63;;
9657;SDS011;4867;48.112;11.622;2022-08-19T07:07:49;15.87;;;14.37;;
9657;SDS011;4867;48.112;11.622;2022-08-19T07:10:16;17.53;;;15.73;;
9657;SDS011;4867;48.112;11.622;2022-08-19T07:12:44;18.97;;;16.93;;
9657;SDS011;4867;48.112;11.622;2022-08-19T07:15:12;18.70;;;16.90;;
9657;SDS011;4867;48.112;11.622;2022-08-19T07:17:39;18.20;;;16.50;;
9657;SDS011;4867;48.112;11.622;2022-08-19T07:20:08;19.57;;;17.57;;
9657;SDS011;4867;48.112;11.622;2022-08-19T07:22:36;19.00;;;17.20;;
9657;SDS011;4867;48.112;11.622;2022-08-19T07:25:06;18.87;;;17.03;;
9657;SDS011;4867;48.112;11.622;2022-08-19T07:27:37;17.80;;;16.03;;
9657;SDS011;4867;48.112;11.622;2022-08-19T07:30:05;20.37;;;18.40;;
9657;SDS011;4867;48.112;11.622;2022-08-19T07:32:37;19.57;;;17.70;;
9657;SDS011;4867;48.112;11.622;2022-08-19T07:35:05;20.33;;;18.33;;
9657;SDS011;4867;48.112;11.622;2022-08-19T07:37:33;20.70;;;18.80;;
9657;SDS011;4867;48.112;11.622;2022-08-19T07:40:02;20.40;;;18.50;;
9657;SDS011;4867;48.112;11.622;2022-08-19T07:42:30;20.90;;;18.87;;
9657;SDS011;4867;48.112;11.622;2022-08-19T07:44:58;19.70;;;17.90;;
9657;SDS011;4867;48.112;11.622;2022-08-19T07:47:25;20.27;;;18.37;;
9657;SDS011;4867;48.112;11.622;2022-08-19T07:50:14;21.53;;;19.53;;
9657;SDS011;4867;48.112;11.622;2022-08-19T07:52:41;22.87;;;20.57;;
9657;SDS011;4867;48.112;11.622;2022-08-19T07:55:14;22.80;;;20.67;;
9657;SDS011;4867;48.112;11.622;2022-08-19T07:58:04;20.97;;;18.87;;
9657;SDS011;4867;48.112;11.622;2022-08-19T08:00:31;23.83;;;21.40;;
9657;SDS011;4867;48.112;11.622;2022-08-19T08:02:58;22.90;;;20.77;;
9657;SDS011;4867;48.112;11.622;2022-08-19T08:05:25;21.37;;;19.37;;
9657;SDS011;4867;48.112;11.622;2022-08-19T08:08:11;22.33;;;20.23;;
9657;SDS011;4867;48.112;11.622;2022-08-19T08:11:14;22.43;;;20.23;;
9657;SDS011;4867;48.112;11.622;2022-08-19T08:13:46;23.43;;;21.13;;
9657;SDS011;4867;48.112;11.622;2022-08-19T08:16:27;24.07;;;21.60;;
9657;SDS011;4867;48.112;11.622;2022-08-19T08:18:57;23.90;;;21.40;;
9657;SDS011;4867;48.112;11.622;2022-08-19T08:21:24;23.47;;;20.97;;
9657;SDS011;4867;48.112;11.622;2022-08-19T08:23:54;23.83;;;21.53;;
9657;SDS011;4867;48.112;11.622;2022-08-19T08:26:22;24.37;;;21.97;;
9657;SDS011;4867;48.112;11.622;2022-08-19T08:28:49;23.00;;;20.70;;
9657;SDS011;4867;48.112;11.622;2022-08-19T08:31:21;23.00;;;20.80;;
9657;SDS011;4867;48.112;11.622;2022-08-19T08:33:48;23.70;;;21.33;;
9657;SDS011;4867;48.112;11.622;2022-08-19T08:36:16;23.60;;;21.27;;
9657;SDS011;4867;48.112;11.622;2022-08-19T08:38:43;25.80;;;23.30;;
9657;SDS011;4867;48.112;11.622;2022-08-19T08:44:40;24.63;;;22.13;;
9657;SDS011;4867;48.112;11.622;2022-08-19T08:47:17;23.07;;;20.77;;
9657;SDS011;4867;48.112;11.622;2022-08-19T08:50:05;24.83;;;22.43;;
9657;SDS011;4867;48.112;11.622;2022-08-19T08:52:39;24.63;;;22.17;;
9657;SDS011;4867;48.112;11.622;2022-08-19T08:55:18;25.97;;;22.80;;
9657;SDS011;4867;48.112;11.622;2022-08-19T08:58:06;25.10;;;22.60;;
9657;SDS011;4867;48.112;11.622;2022-08-19T09:00:44;25.03;;;22.33;;
9657;SDS011;4867;48.112;11.622;2022-08-19T09:03:16;27.23;;;24.40;;
9657;SDS011;4867;48.112;11.622;2022-08-19T09:14:47;33.17;;;26.33;;
9657;SDS011;4867;48.112;11.622;2022-08-19T09:17:30;28.60;;;24.40;;
9657;SDS011;4867;48.112;11.622;2022-08-19T09:20:21;32.57;;;25.23;;
9657;SDS011;4867;48.112;11.622;2022-08-19T09:22:51;27.03;;;24.27;;
9657;SDS011;4867;48.112;11.622;2022-08-19T09:25:20;25.93;;;23.13;;
9657;SDS011;4867;48.112;11.622;2022-08-19T09:27:53;32.30;;;26.47;;
9657;SDS011;4867;48.112;11.622;2022-08-19T09:30:30;25.70;;;22.77;;
9657;SDS011;4867;48.112;11.622;2022-08-19T09:32:59;24.57;;;22.07;;
9657;SDS011;4867;48.112;11.622;2022-08-19T09:35:27;26.80;;;23.90;;
9657;SDS011;4867;48.112;11.622;2022-08-19T09:37:57;27.30;;;23.87;;
9657;SDS011;4867;48.112;11.622;2022-08-19T09:40:29;22.73;;;20.43;;
9657;SDS011;4867;48.112;11.622;2022-08-19T09:43:03;21.70;;;19.63;;
9657;SDS011;4867;48.112;11.622;2022-08-19T09:45:38;22.90;;;20.73;;
9657;SDS011;4867;48.112;11.622;2022-08-19T09:48:05;23.37;;;20.97;;
9657;SDS011;4867;48.112;11.622;2022-08-19T09:50:34;22.93;;;20.53;;
9657;SDS011;4867;48.112;11.622;2022-08-19T09:53:17;28.23;;;23.90;;
9657;SDS011;4867;48.112;11.622;2022-08-19T09:55:44;21.43;;;19.43;;
9657;SDS011;4867;48.112;11.622;2022-08-19T09:58:11;19.97;;;18.07;;
9657;SDS011;4867;48.112;11.622;2022-08-19T10:00:38;19.73;;;17.80;;
9657;SDS011;4867;48.112;11.622;2022-08-19T10:03:05;19.17;;;17.40;;
9657;SDS011;4867;48.112;11.622;2022-08-19T10:05:33;18.77;;;17.07;;
9657;SDS011;4867;48.112;11.622;2022-08-19T10:08:30;18.73;;;17.03;;
9657;SDS011;4867;48.112;11.622;2022-08-19T10:10:59;18.80;;;16.97;;
9657;SDS011;4867;48.112;11.622;2022-08-19T10:13:47;18.80;;;17.10;;
9657;SDS011;4867;48.112;11.622;2022-08-19T10:16:16;16.73;;;15.33;;
9657;SDS011;4867;48.112;11.622;2022-08-19T10:18:54;17.87;;;16.07;;
9657;SDS011;4867;48.112;11.622;2022-08-19T10:21:26;17.63;;;15.83;;
9657;SDS011;4867;48.112;11.622;2022-08-19T10:23:59;18.50;;;16.70;;
9657;SDS011;4867;48.112;11.622;2022-08-19T10:26:30;17.80;;;16.07;;
9657;SDS011;4867;48.112;11.622;2022-08-19T10:28:59;16.60;;;15.20;;
9657;SDS011;4867;48.112;11.622;2022-08-19T10:31:28;16.47;;;15.00;;
9657;SDS011;4867;48.112;11.622;2022-08-19T10:34:16;17.70;;;16.07;;
9657;SDS011;4867;48.112;11.622;2022-08-19T10:36:54;16.33;;;14.73;;
9657;SDS011;4867;48.112;11.622;2022-08-19T10:39:28;17.77;;;16.17;;
9657;SDS011;4867;48.112;11.622;2022-08-19T10:42:07;17.87;;;16.27;;
9657;SDS011;4867;48.112;11.622;2022-08-19T10:44:36;17.63;;;16.03;;
9657;SDS011;4867;48.112;11.622;2022-08-19T10:47:03;16.13;;;14.63;;
9657;SDS011;4867;48.112;11.622;2022-08-19T10:49:51;16.70;;;15.20;;
9657;SDS011;4867;48.112;11.622;2022-08-19T10:52:38;15.17;;;13.87;;
9657;SDS011;4867;48.112;11.622;2022-08-19T10:55:15;16.47;;;15.00;;
9657;SDS011;4867;48.112;11.622;2022-08-19T10:58:03;14.40;;;13.10;;
9657;SDS011;4867;48.112;11.622;2022-08-19T11:00:36;13.80;;;12.60;;
9657;SDS011;4867;48.112;11.622;2022-08-19T11:03:03;14.97;;;13.57;;
9657;SDS011;4867;48.112;11.622;2022-08-19T11:05:30;14.03;;;12.73;;
9657;SDS011;4867;48.112;11.622;2022-08-19T11:08:05;15.70;;;14.20;;
9657;SDS011;4867;48.112;11.622;2022-08-19T11:10:49;14.20;;;12.90;;
9657;SDS011;4867;48.112;11.622;2022-08-19T11:13:19;12.83;;;11.73;;
9657;SDS011;4867;48.112;11.622;2022-08-19T11:15:47;13.47;;;12.33;;
9657;SDS011;4867;48.112;11.622;2022-08-19T11:18:14;12.23;;;11.23;;
9657;SDS011;4867;48.112;11.622;2022-08-19T11:20:43;11.77;;;10.77;;
9657;SDS011;4867;48.112;11.622;2022-08-19T11:23:09;10.63;;;9.63;;
9657;SDS011;4867;48.112;11.622;2022-08-19T11:25:38;9.27;;;8.50;;
9657;SDS011;4867;48.112;11.622;2022-08-19T11:28:05;8.93;;;8.20;;
9657;SDS011;4867;48.112;11.622;2022-08-19T11:30:32;8.83;;;8.13;;
9657;SDS011;4867;48.112;11.622;2022-08-19T11:32:59;9.60;;;8.77;;
9657;SDS011;4867;48.112;11.622;2022-08-19T11:35:27;8.80;;;8.10;;
9657;SDS011;4867;48.112;11.622;2022-08-19T11:37:54;10.33;;;9.43;;
9657;SDS011;4867;48.112;11.622;2022-08-19T11:40:22;8.67;;;7.97;;
9657;SDS011;4867;48.112;11.622;2022-08-19T11:42:49;9.40;;;8.70;;
9657;SDS011;4867;48.112;11.622;2022-08-19T11:45:26;11.97;;;10.97;;
9657;SDS011;4867;48.112;11.622;2022-08-19T11:47:54;12.13;;;11.13;;
9657;SDS011;4867;48.112;11.622;2022-08-19T11:50:22;11.90;;;10.80;;
9657;SDS011;4867;48.112;11.622;2022-08-19T11:52:49;11.97;;;10.97;;
9657;SDS011;4867;48.112;11.622;2022-08-19T11:55:20;10.90;;;9.97;;
9657;SDS011;4867;48.112;11.622;2022-08-19T11:57:47;9.63;;;8.83;;
9657;SDS011;4867;48.112;11.622;2022-08-19T12:00:14;9.90;;;9.10;;
9657;SDS011;4867;48.112;11.622;2022-08-19T12:02:41;7.07;;;6.47;;
9657;SDS011;4867;48.112;11.622;2022-08-19T12:05:08;6.93;;;6.33;;
9657;SDS011;4867;48.112;11.622;2022-08-19T12:07:39;7.50;;;6.90;;
9657;SDS011;4867;48.112;11.622;2022-08-19T12:10:09;7.40;;;6.80;;
9657;SDS011;4867;48.112;11.622;2022-08-19T12:12:36;7.43;;;6.83;;
9657;SDS011;4867;48.112;11.622;2022-08-19T12:15:09;6.13;;;5.63;;
9657;SDS011;4867;48.112;11.622;2022-08-19T12:17:38;5.30;;;4.80;;
9657;SDS011;4867;48.112;11.622;2022-08-19T12:20:05;5.53;;;4.33;;
9657;SDS011;4867;48.112;11.622;2022-08-19T12:22:35;4.00;;;3.70;;
9657;SDS011;4867;48.112;11.622;2022-08-19T12:25:07;4.00;;;3.70;;
9657;SDS011;4867;48.112;11.622;2022-08-19T12:27:36;3.00;;;2.80;;
9657;SDS011;4867;48.112;11.622;2022-08-19T12:30:08;2.37;;;2.20;;
9657;SDS011;4867;48.112;11.622;2022-08-19T12:32:36;2.60;;;2.30;;
9657;SDS011;4867;48.112;11.622;2022-08-19T12:35:05;2.40;;;2.20;;
9657;SDS011;4867;48.112;11.622;2022-08-19T12:37:32;2.30;;;2.00;;
9657;SDS011;4867;48.112;11.622;2022-08-19T12:40:00;1.80;;;1.70;;
9657;SDS011;4867;48.112;11.622;2022-08-19T12:42:27;2.00;;;1.90;;
9657;SDS011;4867;48.112;11.622;2022-08-19T12:44:55;2.60;;;2.00;;
9657;SDS011;4867;48.112;11.622;2022-08-19T12:47:22;2.27;;;2.10;;
9657;SDS011;4867;48.112;11.622;2022-08-19T12:49:49;2.10;;;2.00;;
9657;SDS011;4867;48.112;11.622;2022-08-19T12:52:21;2.73;;;2.20;;
9657;SDS011;4867;48.112;11.622;2022-08-19T12:54:50;2.20;;;2.10;;
9657;SDS011;4867;48.112;11.622;2022-08-19T12:57:25;2.33;;;2.13;;
9657;SDS011;4867;48.112;11.622;2022-08-19T13:00:18;1.83;;;1.73;;
9657;SDS011;4867;48.112;11.622;2022-08-19T13:02:48;1.80;;;1.70;;
9657;SDS011;4867;48.112;11.622;2022-08-19T13:05:18;1.90;;;1.80;;
9657;SDS011;4867;48.112;11.622;2022-08-19T13:07:49;2.13;;;1.97;;
9657;SDS011;4867;48.112;11.622;2022-08-19T13:10:18;1.90;;;1.80;;
9657;SDS011;4867;48.112;11.622;2022-08-19T13:12:47;1.87;;;1.77;;
9657;SDS011;4867;48.112;11.622;2022-08-19T13:15:16;2.20;;;2.10;;
9657;SDS011;4867;48.112;11.622;2022-08-19T13:17:50;2.23;;;1.93;;
9657;SDS011;4867;48.112;11.622;2022-08-19T13:20:20;2.40;;;2.20;;
9657;SDS011;4867;48.112;11.622;2022-08-19T13:22:48;2.43;;;2.23;;
9657;SDS011;4867;48.112;11.622;2022-08-19T13:25:15;2.43;;;2.23;;
9657;SDS011;4867;48.112;11.622;2022-08-19T13:27:46;2.27;;;2.00;;
9657;SDS011;4867;48.112;11.622;2022-08-19T13:30:14;2.80;;;2.40;;
9657;SDS011;4867;48.112;11.622;2022-08-19T13:33:01;2.50;;;2.33;;
9657;SDS011;4867;48.112;11.622;2022-08-19T13:35:38;2.40;;;2.10;;
9657;SDS011;4867;48.112;11.622;2022-08-19T13:38:10;2.90;;;2.13;;
9657;SDS011;4867;48.112;11.622;2022-08-19T13:40:37;3.33;;;2.50;;
9657;SDS011;4867;48.112;11.622;2022-08-19T13:43:07;2.30;;;2.10;;
9657;SDS011;4867;48.112;11.622;2022-08-19T13:45:49;2.20;;;2.00;;
9657;SDS011;4867;48.112;11.622;2022-08-19T13:48:19;2.53;;;2.33;;
9657;SDS011;4867;48.112;11.622;2022-08-19T13:50:46;2.50;;;1.90;;
9657;SDS011;4867;48.112;11.622;2022-08-19T13:53:15;2.83;;;2.03;;
9657;SDS011;4867;48.112;11.622;2022-08-19T13:55:43;2.37;;;2.17;;
9657;SDS011;4867;48.112;11.622;2022-08-19T13:58:10;2.47;;;2.27;;
9657;SDS011;4867;48.112;11.622;2022-08-19T14:00:40;2.50;;;2.30;;
9657;SDS011;4867;48.112;11.622;2022-08-19T14:03:11;2.50;;;2.30;;
9657;SDS011;4867;48.112;11.622;2022-08-19T14:05:38;2.43;;;2.30;;
9657;SDS011;4867;48.112;11.622;2022-08-19T14:08:05;2.63;;;2.43;;
9657;SDS011;4867;48.112;11.622;2022-08-19T14:10:33;3.10;;;2.90;;
9657;SDS011;4867;48.112;11.622;2022-08-19T14:13:00;3.27;;;2.97;;
9657;SDS011;4867;48.112;11.622;2022-08-19T14:15:28;3.40;;;3.13;;
9657;SDS011;4867;48.112;11.622;2022-08-19T14:17:56;2.80;;;2.60;;
9657;SDS011;4867;48.112;11.622;2022-08-19T14:20:23;3.13;;;2.93;;
9657;SDS011;4867;48.112;11.622;2022-08-19T14:22:51;3.10;;;2.90;;
9657;SDS011;4867;48.112;11.622;2022-08-19T14:25:20;3.27;;;2.97;;
9657;SDS011;4867;48.112;11.622;2022-08-19T14:27:50;3.53;;;3.33;;
9657;SDS011;4867;48.112;11.622;2022-08-19T14:30:20;3.53;;;3.33;;
9657;SDS011;4867;48.112;11.622;2022-08-19T14:32:49;3.43;;;3.13;;
9657;SDS011;4867;48.112;11.622;2022-08-19T14:35:16;3.80;;;3.50;;
9657;SDS011;4867;48.112;11.622;2022-08-19T14:37:44;3.42;;;3.20;;
9657;SDS011;4867;48.112;11.622;2022-08-19T14:40:13;3.72;;;3.47;;
9657;SDS011;4867;48.112;11.622;2022-08-19T14:42:42;3.60;;;3.30;;
9657;SDS011;4867;48.112;11.622;2022-08-19T14:45:10;3.50;;;3.20;;
9657;SDS011;4867;48.112;11.622;2022-08-19T14:47:37;3.95;;;3.65;;
9657;SDS011;4867;48.112;11.622;2022-08-19T14:50:07;3.88;;;3.58;;
9657;SDS011;4867;48.112;11.622;2022-08-19T14:52:47;4.03;;;3.73;;
9657;SDS011;4867;48.112;11.622;2022-08-19T14:55:15;3.40;;;3.20;;
9657;SDS011;4867;48.112;11.622;2022-08-19T14:57:43;3.23;;;3.00;;
9657;SDS011;4867;48.112;11.622;2022-08-19T15:00:11;3.30;;;3.10;;
9657;SDS011;4867;48.112;11.622;2022-08-19T15:02:40;3.30;;;3.10;;
9657;SDS011;4867;48.112;11.622;2022-08-19T15:05:07;3.00;;;2.80;;
9657;SDS011;4867;48.112;11.622;2022-08-19T15:07:36;2.60;;;2.40;;
9657;SDS011;4867;48.112;11.622;2022-08-19T15:10:05;2.80;;;2.60;;
9657;SDS011;4867;48.112;11.622;2022-08-19T15:12:33;2.70;;;2.50;;
9657;SDS011;4867;48.112;11.622;2022-08-19T15:15:01;3.10;;;2.80;;
9657;SDS011;4867;48.112;11.622;2022-08-19T15:17:29;3.23;;;3.03;;
9657;SDS011;4867;48.112;11.622;2022-08-19T15:20:17;3.20;;;2.90;;
9657;SDS011;4867;48.112;11.622;2022-08-19T15:22:47;3.30;;;3.10;;
9657;SDS011;4867;48.112;11.622;2022-08-19T15:25:15;3.20;;;2.80;;
9657;SDS011;4867;48.112;11.622;2022-08-19T15:27:44;3.23;;;2.93;;
9657;SDS011;4867;48.112;11.622;2022-08-19T15:30:11;3.80;;;3.50;;
9657;SDS011;4867;48.112;11.622;2022-08-19T15:32:44;3.90;;;3.60;;